createdAt,value
2016-08-19T00:00:23.952Z,14.6
2016-08-19T00:01:23.978Z,14.62
2016-08-19T00:02:24.005Z,14.61
2016-08-19T00:03:24.031Z,14.61
2016-08-19T00:04:24.053Z,14.57
2016-08-19T00:05:24.078Z,14.6
2016-08-19T00:06:24.095Z,14.64
2016-08-19T00:07:24.124Z,14.78
2016-08-19T00:08:24.155Z,14.8
2016-08-19T00:09:24.187Z,14.73
2016-08-19T00:10:39.125Z,14.64
2016-08-19T00:11:24.229Z,14.7
2016-08-19T00:12:24.255Z,14.61
2016-08-19T00:13:24.280Z,14.57
2016-08-19T00:14:24.302Z,14.62
2016-08-19T00:15:24.333Z,14.65
2016-08-19T00:16:24.355Z,14.68
2016-08-19T00:17:24.383Z,14.69
2016-08-19T00:18:24.401Z,14.83
2016-08-19T00:19:24.434Z,14.7
2016-08-19T00:21:24.480Z,14.88
2016-08-19T00:22:24.511Z,14.95
2016-08-19T00:24:24.558Z,14.99
2016-08-19T00:25:39.506Z,14.99
2016-08-19T00:26:24.604Z,15.03
2016-08-19T00:27:24.630Z,15.03
2016-08-19T00:28:24.655Z,15.06
2016-08-19T00:29:24.680Z,15.02
2016-08-19T00:30:24.705Z,15.02
2016-08-19T00:31:24.731Z,14.91
2016-08-19T00:32:24.752Z,14.95
2016-08-19T00:33:24.775Z,14.83
2016-08-19T00:35:24.826Z,14.77
2016-08-19T00:36:24.857Z,14.75
2016-08-19T00:37:24.883Z,14.86
2016-08-19T00:38:24.902Z,14.91
2016-08-19T00:39:24.931Z,14.91
2016-08-19T00:40:24.950Z,14.89
2016-08-19T00:41:39.909Z,14.96
2016-08-19T00:42:25.006Z,14.98
2016-08-19T00:43:25.039Z,15.09
2016-08-19T00:44:25.063Z,15.06
2016-08-19T00:45:25.078Z,14.94
2016-08-19T00:46:25.114Z,14.92
2016-08-19T00:47:25.135Z,14.8
2016-08-19T00:48:25.205Z,14.89
2016-08-19T00:49:25.177Z,14.77
2016-08-19T00:50:25.198Z,14.84
2016-08-19T00:51:25.230Z,14.77
2016-08-19T00:52:25.260Z,14.77
2016-08-19T00:53:40.219Z,14.73
2016-08-19T00:55:25.343Z,14.64
2016-08-19T00:56:25.359Z,14.62
2016-08-19T00:57:40.309Z,14.75
2016-08-19T00:58:25.455Z,14.7
2016-08-19T00:59:25.434Z,14.8
2016-08-19T01:00:40.394Z,14.78
2016-08-19T01:01:25.485Z,14.81
2016-08-19T01:02:25.506Z,14.83
2016-08-19T01:03:25.541Z,14.78
2016-08-19T01:04:25.557Z,14.89
2016-08-19T01:05:25.577Z,14.95
2016-08-19T01:06:40.541Z,14.81
2016-08-19T01:07:25.627Z,14.69
2016-08-19T01:10:40.634Z,14.45
2016-08-19T01:11:25.736Z,14.47
2016-08-19T01:12:25.761Z,14.39
2016-08-19T01:13:40.706Z,14.4
2016-08-19T01:14:40.726Z,14.36
2016-08-19T01:15:25.834Z,14.35
2016-08-19T01:16:25.855Z,14.36
2016-08-19T01:17:25.882Z,14.37
2016-08-19T01:18:25.906Z,14.35
2016-08-19T01:19:25.931Z,14.4
2016-08-19T01:20:25.955Z,14.47
2016-08-19T01:21:25.980Z,14.5
2016-08-19T01:22:26.007Z,14.51
2016-08-19T01:24:26.055Z,14.47
2016-08-19T01:25:26.081Z,14.51
2016-08-19T01:26:26.108Z,14.52
2016-08-19T01:27:26.132Z,14.57
2016-08-19T01:28:41.077Z,14.62
2016-08-19T01:29:26.176Z,14.62
2016-08-19T01:30:26.207Z,14.61
2016-08-19T01:31:26.231Z,14.81
2016-08-19T01:32:26.257Z,14.77
2016-08-19T01:33:26.278Z,14.78
2016-08-19T01:34:26.305Z,14.73
2016-08-19T01:35:26.337Z,14.73
2016-08-19T01:36:26.371Z,14.69
2016-08-19T01:37:26.381Z,14.73
2016-08-19T01:38:26.409Z,14.65
2016-08-19T01:39:26.427Z,14.68
2016-08-19T01:40:26.452Z,14.65
2016-08-19T01:41:26.480Z,14.61
2016-08-19T01:42:26.511Z,14.69
2016-08-19T01:43:41.454Z,14.73
2016-08-19T01:44:41.478Z,14.88
2016-08-19T01:45:26.582Z,14.96
2016-08-19T01:46:41.526Z,14.94
2016-08-19T01:47:26.629Z,14.8
2016-08-19T01:48:26.657Z,14.81
2016-08-19T01:49:26.679Z,14.69
2016-08-19T01:50:26.709Z,14.68
2016-08-19T01:51:26.728Z,14.65
2016-08-19T01:52:26.754Z,14.64
2016-08-19T01:53:26.771Z,14.69
2016-08-19T01:54:26.805Z,14.64
2016-08-19T01:55:26.825Z,14.69
2016-08-19T01:56:26.857Z,14.51
2016-08-19T01:58:41.827Z,14.51
2016-08-19T01:59:26.931Z,14.5
2016-08-19T02:00:41.877Z,14.42
2016-08-19T02:02:27.000Z,14.42
2016-08-19T02:03:27.025Z,14.43
2016-08-19T02:04:27.059Z,14.42
2016-08-19T02:05:27.074Z,14.36
2016-08-19T02:06:27.102Z,14.43
2016-08-19T02:07:27.129Z,14.35
2016-08-19T02:08:27.157Z,14.35
2016-08-19T02:09:27.877Z,14.36
2016-08-19T02:10:27.199Z,14.36
2016-08-19T02:11:27.227Z,14.32
2016-08-19T02:12:27.258Z,14.32
2016-08-19T02:13:27.276Z,14.28
2016-08-19T02:14:27.297Z,14.2
2016-08-19T02:15:27.324Z,14.2
2016-08-19T02:16:42.278Z,14.27
2016-08-19T02:17:27.378Z,14.24
2016-08-19T02:19:27.434Z,14.17
2016-08-19T02:20:27.449Z,14.27
2016-08-19T02:21:27.476Z,14.15
2016-08-19T02:22:27.491Z,14.21
2016-08-19T02:23:27.525Z,14.17
2016-08-19T02:24:27.548Z,14.14
2016-08-19T02:25:27.569Z,14.24
2016-08-19T02:26:27.592Z,14.29
2016-08-19T02:27:27.619Z,14.35
2016-08-19T02:28:27.650Z,14.29
2016-08-19T02:29:27.667Z,14.36
2016-08-19T02:30:27.697Z,14.32
2016-08-19T02:31:27.721Z,14.32
2016-08-19T02:32:42.670Z,14.2
2016-08-19T02:33:27.771Z,14.14
2016-08-19T02:34:27.793Z,14.22
2016-08-19T02:35:27.819Z,14.22
2016-08-19T02:36:27.843Z,14.22
2016-08-19T02:37:27.866Z,14.28
2016-08-19T02:38:27.900Z,14.18
2016-08-19T02:39:27.916Z,14.17
2016-08-19T02:40:27.953Z,14.18
2016-08-19T02:41:27.970Z,14.36
2016-08-19T02:42:27.998Z,14.4
2016-08-19T02:43:28.017Z,14.46
2016-08-19T02:44:28.036Z,14.39
2016-08-19T02:45:42.994Z,14.36
2016-08-19T02:47:28.119Z,14.33
2016-08-19T02:48:43.063Z,14.36
2016-08-19T02:49:43.086Z,14.4
2016-08-19T02:50:28.188Z,14.39
2016-08-19T02:52:28.244Z,14.45
2016-08-19T02:53:28.263Z,14.51
2016-08-19T02:54:28.289Z,14.46
2016-08-19T02:55:28.312Z,14.52
2016-08-19T02:56:28.336Z,14.39
2016-08-19T02:57:28.360Z,14.42
2016-08-19T02:58:28.387Z,14.37
2016-08-19T02:59:43.339Z,14.37
2016-08-19T03:00:28.490Z,14.29
2016-08-19T03:01:28.461Z,14.33
2016-08-19T03:02:28.494Z,14.33
2016-08-19T03:03:43.438Z,14.37
2016-08-19T03:04:28.535Z,14.39
2016-08-19T03:05:28.564Z,14.43
2016-08-19T03:06:28.582Z,14.51
2016-08-19T03:07:28.612Z,14.42
2016-08-19T03:08:28.635Z,14.4
2016-08-19T03:09:28.716Z,14.33
2016-08-19T03:10:28.692Z,14.27
2016-08-19T03:11:28.712Z,14.39
2016-08-19T03:12:28.741Z,14.52
2016-08-19T03:13:28.758Z,14.5
2016-08-19T03:15:28.814Z,14.43
2016-08-19T03:16:28.832Z,14.21
2016-08-19T03:17:28.869Z,14.21
2016-08-19T03:18:28.883Z,14.32
2016-08-19T03:19:28.906Z,14.12
2016-08-19T03:20:28.934Z,14
2016-08-19T03:21:28.956Z,14.14
2016-08-19T03:22:28.979Z,14.09
2016-08-19T03:23:29.005Z,14.06
2016-08-19T03:24:29.029Z,14.03
2016-08-19T03:25:29.063Z,14.07
2016-08-19T03:26:29.082Z,14.12
2016-08-19T03:27:29.101Z,14.09
2016-08-19T03:28:29.130Z,14.14
2016-08-19T03:29:29.159Z,14.21
2016-08-19T03:30:29.176Z,14.18
2016-08-19T03:31:29.206Z,14.24
2016-08-19T03:32:29.222Z,14.2
2016-08-19T03:33:29.948Z,14.27
2016-08-19T03:34:29.272Z,14.18
2016-08-19T03:35:44.226Z,14.09
2016-08-19T03:36:29.335Z,14.03
2016-08-19T03:37:29.352Z,14.04
2016-08-19T03:38:29.384Z,13.95
2016-08-19T03:39:29.399Z,13.91
2016-08-19T03:40:29.431Z,13.89
2016-08-19T03:41:29.450Z,13.7
2016-08-19T03:42:29.476Z,13.77
2016-08-19T03:43:29.508Z,13.73
2016-08-19T03:44:29.522Z,13.63
2016-08-19T03:45:29.546Z,13.64
2016-08-19T03:46:29.574Z,13.64
2016-08-19T03:47:29.600Z,13.69
2016-08-19T03:48:44.555Z,13.63
2016-08-19T03:49:29.663Z,13.69
2016-08-19T03:50:44.593Z,13.67
2016-08-19T03:51:44.616Z,13.64
2016-08-19T03:52:29.729Z,13.71
2016-08-19T03:53:29.758Z,13.73
2016-08-19T03:54:29.768Z,13.81
2016-08-19T03:55:29.798Z,13.77
2016-08-19T03:56:29.815Z,13.77
2016-08-19T03:57:29.846Z,13.78
2016-08-19T03:58:29.880Z,13.67
2016-08-19T03:59:29.892Z,13.66
2016-08-19T04:00:29.934Z,13.63
2016-08-19T04:01:29.943Z,13.52
2016-08-19T04:02:29.967Z,13.49
2016-08-19T04:03:29.990Z,13.55
2016-08-19T04:04:30.015Z,13.49
2016-08-19T04:05:30.043Z,13.52
2016-08-19T04:06:30.068Z,13.51
2016-08-19T04:07:45.066Z,13.63
2016-08-19T04:08:30.118Z,13.52
2016-08-19T04:09:30.137Z,13.57
2016-08-19T04:10:30.164Z,13.54
2016-08-19T04:11:30.239Z,13.51
2016-08-19T04:12:30.212Z,13.57
2016-08-19T04:13:30.234Z,13.54
2016-08-19T04:14:30.261Z,13.55
2016-08-19T04:15:30.283Z,13.52
2016-08-19T04:16:30.315Z,13.6
2016-08-19T04:17:30.334Z,13.54
2016-08-19T04:18:30.355Z,13.62
2016-08-19T04:19:30.378Z,13.67
2016-08-19T04:20:45.335Z,13.62
2016-08-19T04:21:30.433Z,13.64
2016-08-19T04:23:45.409Z,13.78
2016-08-19T04:24:30.514Z,13.79
2016-08-19T04:25:30.535Z,13.88
2016-08-19T04:26:30.558Z,13.78
2016-08-19T04:27:30.587Z,13.85
2016-08-19T04:28:30.604Z,13.82
2016-08-19T04:29:30.625Z,13.79
2016-08-19T04:30:30.653Z,13.78
2016-08-19T04:31:30.678Z,13.75
2016-08-19T04:32:30.707Z,13.78
2016-08-19T04:33:30.726Z,13.77
2016-08-19T04:34:30.747Z,13.75
2016-08-19T04:35:30.774Z,13.81
2016-08-19T04:37:30.832Z,13.89
2016-08-19T04:38:45.774Z,13.91
2016-08-19T04:39:30.879Z,13.85
2016-08-19T04:40:30.907Z,13.96
2016-08-19T04:41:30.929Z,13.89
2016-08-19T04:42:30.952Z,13.96
2016-08-19T04:43:30.974Z,13.97
2016-08-19T04:44:31.000Z,13.96
2016-08-19T04:45:31.024Z,14.04
2016-08-19T04:46:31.051Z,13.99
2016-08-19T04:47:31.070Z,14.06
2016-08-19T04:48:31.093Z,14.06
2016-08-19T04:49:31.123Z,14.17
2016-08-19T04:50:31.144Z,14.21
2016-08-19T04:52:31.202Z,14.27
2016-08-19T04:54:31.249Z,14.57
2016-08-19T04:55:46.192Z,15.27
2016-08-19T04:56:31.296Z,15.84
2016-08-19T04:57:31.322Z,16.38
2016-08-19T04:58:31.345Z,16.73
2016-08-19T04:59:31.370Z,17.22
2016-08-19T05:00:31.397Z,17.78
2016-08-19T05:01:31.426Z,18.17
2016-08-19T05:02:31.446Z,18.6
2016-08-19T05:03:31.475Z,18.78
2016-08-19T05:04:31.500Z,19.16
2016-08-19T05:06:31.554Z,20.03
2016-08-19T05:07:31.580Z,20.38
2016-08-19T05:08:31.665Z,20.48
2016-08-19T05:10:46.586Z,21.07
2016-08-19T05:11:31.692Z,21.35
2016-08-19T05:12:31.763Z,21.67
2016-08-19T05:13:32.445Z,21.84
2016-08-19T05:14:31.787Z,21.96
2016-08-19T05:15:31.805Z,22.35
2016-08-19T05:16:31.831Z,22.6
2016-08-19T05:17:31.860Z,22.75
2016-08-19T05:18:31.892Z,22.75
2016-08-19T05:19:31.919Z,22.75
2016-08-19T05:20:31.951Z,22.85
2016-08-19T05:21:31.985Z,23.01
2016-08-19T05:22:32.012Z,23.28
2016-08-19T05:23:47.014Z,23.33
2016-08-19T05:24:32.076Z,23.51
2016-08-19T05:25:32.105Z,23.54
2016-08-19T05:26:47.055Z,23.68
2016-08-19T05:27:32.165Z,23.73
2016-08-19T05:28:47.119Z,23.93
2016-08-19T05:29:32.227Z,24.12
2016-08-19T05:30:32.254Z,24.27
2016-08-19T05:31:32.294Z,24.58
2016-08-19T05:32:32.325Z,24.35
2016-08-19T05:33:32.356Z,24.45
2016-08-19T05:34:32.396Z,24.55
2016-08-19T05:35:32.413Z,25.27
2016-08-19T05:36:32.463Z,25.46
2016-08-19T05:37:32.484Z,25.65
2016-08-19T05:38:32.514Z,26.05
2016-08-19T05:39:32.544Z,26.58
2016-08-19T05:41:32.613Z,26.94
2016-08-19T05:42:47.567Z,26.57
2016-08-19T05:43:32.673Z,26.5
2016-08-19T05:44:32.709Z,26.18
2016-08-19T05:45:32.741Z,26.02
2016-08-19T05:46:32.777Z,26.35
2016-08-19T05:47:32.812Z,26.28
2016-08-19T05:48:32.848Z,26.32
2016-08-19T05:49:32.873Z,26.45
2016-08-19T05:50:32.917Z,26.54
2016-08-19T05:51:32.949Z,26.47
2016-08-19T05:52:32.985Z,26.58
2016-08-19T05:53:33.016Z,26.57
2016-08-19T05:54:33.058Z,27
2016-08-19T05:55:48.009Z,26.88
2016-08-19T05:56:33.115Z,26.8
2016-08-19T05:57:33.152Z,26.97
2016-08-19T05:58:48.116Z,27.32
2016-08-19T05:59:48.144Z,27.14
2016-08-19T06:00:33.267Z,27.39
2016-08-19T06:01:33.291Z,27.41
2016-08-19T06:02:33.320Z,27.81
2016-08-19T06:03:33.361Z,27.88
2016-08-19T06:04:33.390Z,27.67
2016-08-19T06:05:33.425Z,27.96
2016-08-19T06:06:33.460Z,27.74
2016-08-19T06:07:33.499Z,27.78
2016-08-19T06:08:33.531Z,27.44
2016-08-19T06:09:33.563Z,27.49
2016-08-19T06:10:48.527Z,27.51
2016-08-19T06:11:33.631Z,27.36
2016-08-19T06:12:33.671Z,27.19
2016-08-19T06:13:48.685Z,27.4
2016-08-19T06:14:33.742Z,27.32
2016-08-19T06:15:33.775Z,27.43
2016-08-19T06:16:33.809Z,27.72
2016-08-19T06:17:33.842Z,27.81
2016-08-19T06:18:33.887Z,27.72
2016-08-19T06:19:33.919Z,27.99
2016-08-19T06:20:33.953Z,27.96
2016-08-19T06:21:33.994Z,28.11
2016-08-19T06:22:34.018Z,28
2016-08-19T06:23:48.986Z,27.97
2016-08-19T06:24:34.089Z,27.84
2016-08-19T06:25:34.177Z,27.96
2016-08-19T06:26:34.159Z,28.15
2016-08-19T06:27:34.199Z,28.11
2016-08-19T06:28:49.158Z,28.36
2016-08-19T06:29:34.268Z,28.4
2016-08-19T06:30:34.307Z,28.36
2016-08-19T06:31:34.341Z,28.49
2016-08-19T06:32:34.368Z,27.99
2016-08-19T06:33:34.407Z,27.67
2016-08-19T06:34:34.444Z,27.97
2016-08-19T06:35:34.481Z,28.02
2016-08-19T06:36:34.513Z,28.09
2016-08-19T06:37:34.551Z,28.12
2016-08-19T06:39:34.619Z,28.09
2016-08-19T06:41:34.699Z,28.36
2016-08-19T06:42:34.735Z,28.54
2016-08-19T06:44:34.800Z,28.73
2016-08-19T06:45:49.765Z,29.26
2016-08-19T06:47:34.911Z,29.12
2016-08-19T06:48:34.939Z,29.36
2016-08-19T06:49:34.986Z,29.57
2016-08-19T06:50:35.013Z,29.58
2016-08-19T06:51:35.057Z,29.53
2016-08-19T06:52:35.093Z,29.6
2016-08-19T06:53:35.125Z,29.45
2016-08-19T06:54:35.162Z,28.7
2016-08-19T06:55:35.197Z,28.4
2016-08-19T06:56:35.240Z,28.88
2016-08-19T06:57:35.263Z,29.61
2016-08-19T06:58:50.235Z,30
2016-08-19T06:59:35.337Z,29.95
2016-08-19T07:00:35.376Z,30
2016-08-19T07:01:50.341Z,30.15
2016-08-19T07:02:35.452Z,30.22
2016-08-19T07:03:35.486Z,30.43
2016-08-19T07:04:35.525Z,30.54
2016-08-19T07:05:35.564Z,30.55
2016-08-19T07:06:35.593Z,29.87
2016-08-19T07:07:35.634Z,29.85
2016-08-19T07:08:35.670Z,29.42
2016-08-19T07:09:35.705Z,29.49
2016-08-19T07:10:35.742Z,29.26
2016-08-19T07:12:35.826Z,29.52
2016-08-19T07:14:35.892Z,28.76
2016-08-19T07:15:35.920Z,28.98
2016-08-19T07:16:35.962Z,28.74
2016-08-19T07:17:50.926Z,29.05
2016-08-19T07:18:36.031Z,29.21
2016-08-19T07:19:36.091Z,29.41
2016-08-19T07:20:36.160Z,28.58
2016-08-19T07:21:36.143Z,28.4
2016-08-19T07:22:36.182Z,29.09
2016-08-19T07:23:36.224Z,29.45
2016-08-19T07:24:36.253Z,29.71
2016-08-19T07:25:36.339Z,30
2016-08-19T07:26:36.321Z,30.13
2016-08-19T07:28:36.414Z,30.54
2016-08-19T07:29:36.432Z,30.02
2016-08-19T07:32:36.545Z,28.54
2016-08-19T07:33:51.508Z,29.26
2016-08-19T07:34:36.622Z,29.41
2016-08-19T07:35:36.658Z,29.58
2016-08-19T07:36:36.689Z,30.08
2016-08-19T07:37:36.722Z,29.79
2016-08-19T07:38:36.767Z,29.04
2016-08-19T07:39:36.796Z,28.8
2016-08-19T07:40:36.835Z,28.8
2016-08-19T07:41:36.878Z,28.33
2016-08-19T07:42:36.907Z,28.04
2016-08-19T07:43:36.947Z,28.56
2016-08-19T07:45:37.021Z,28.8
2016-08-19T07:46:51.986Z,28.67
2016-08-19T07:47:37.090Z,29.05
2016-08-19T07:48:52.057Z,29.83
2016-08-19T07:49:37.175Z,29.87
2016-08-19T07:50:37.204Z,29.98
2016-08-19T07:51:37.238Z,29.6
2016-08-19T07:52:37.279Z,29.6
2016-08-19T07:53:38.008Z,29.14
2016-08-19T07:54:37.351Z,29.15
2016-08-19T07:55:37.389Z,29.02
2016-08-19T07:56:37.415Z,27.59
2016-08-19T07:57:37.457Z,27.43
2016-08-19T07:58:37.491Z,27.6
2016-08-19T08:00:37.568Z,28.51
2016-08-19T08:01:37.600Z,29.26
2016-08-19T08:02:37.637Z,29.74
2016-08-19T08:04:37.715Z,30.22
2016-08-19T08:05:37.748Z,30.35
2016-08-19T08:06:37.784Z,30.11
2016-08-19T08:07:37.817Z,29.82
2016-08-19T08:08:37.854Z,29.94
2016-08-19T08:09:37.894Z,29.97
2016-08-19T08:10:37.924Z,29.95
2016-08-19T08:11:37.966Z,30.47
2016-08-19T08:12:37.994Z,30.58
2016-08-19T08:13:38.057Z,30.86
2016-08-19T08:14:38.074Z,31.07
2016-08-19T08:17:38.180Z,30.07
2016-08-19T08:18:38.220Z,30.01
2016-08-19T08:19:38.256Z,30.1
2016-08-19T08:20:53.265Z,29.36
2016-08-19T08:21:38.331Z,29.27
2016-08-19T08:22:38.362Z,29.43
2016-08-19T08:23:38.398Z,29.87
2016-08-19T08:24:38.435Z,29.48
2016-08-19T08:25:38.468Z,29.67
2016-08-19T08:27:38.587Z,30.16
2016-08-19T08:28:38.585Z,30.42
2016-08-19T08:29:38.613Z,30.92
2016-08-19T08:30:38.652Z,31.32
2016-08-19T08:31:38.685Z,31.54
2016-08-19T08:32:38.720Z,31.75
2016-08-19T08:33:53.683Z,31.39
2016-08-19T08:34:38.791Z,30.92
2016-08-19T08:35:38.824Z,31.04
2016-08-19T08:36:53.792Z,30.76
2016-08-19T08:37:38.899Z,31.04
2016-08-19T08:38:38.935Z,30.79
2016-08-19T08:39:38.973Z,30.53
2016-08-19T08:40:39.006Z,30.57
2016-08-19T08:41:39.040Z,30.83
2016-08-19T08:42:39.086Z,30.65
2016-08-19T08:43:39.110Z,30.69
2016-08-19T08:44:39.147Z,30.22
2016-08-19T08:45:39.185Z,30.13
2016-08-19T08:46:39.219Z,29.8
2016-08-19T08:47:39.256Z,29.28
2016-08-19T08:48:39.294Z,28.88
2016-08-19T08:49:39.336Z,28.11
2016-08-19T08:51:39.402Z,28.49
2016-08-19T08:52:54.361Z,28.58
2016-08-19T08:53:54.398Z,27.82
2016-08-19T08:54:39.502Z,27.97
2016-08-19T08:55:39.541Z,28.09
2016-08-19T08:56:39.582Z,28.43
2016-08-19T08:57:39.608Z,28.78
2016-08-19T08:58:39.653Z,29.3
2016-08-19T08:59:39.678Z,29.58
2016-08-19T09:00:39.741Z,29.63
2016-08-19T09:01:39.759Z,30.17
2016-08-19T09:02:39.794Z,30.64
2016-08-19T09:03:39.829Z,30.58
2016-08-19T09:04:39.855Z,30.76
2016-08-19T09:05:39.895Z,30.83
2016-08-19T09:06:39.933Z,31.04
2016-08-19T09:07:39.966Z,31.2
2016-08-19T09:08:54.927Z,31.28
2016-08-19T09:09:40.731Z,31.36
2016-08-19T09:10:40.075Z,31.39
2016-08-19T09:11:40.106Z,31.61
2016-08-19T09:12:40.141Z,32.03
2016-08-19T09:13:40.173Z,32.43
2016-08-19T09:14:40.214Z,32.78
2016-08-19T09:15:40.250Z,32.87
2016-08-19T09:16:40.282Z,33.12
2016-08-19T09:17:40.319Z,32.75
2016-08-19T09:19:40.389Z,32.7
2016-08-19T09:20:55.350Z,32.7
2016-08-19T09:21:40.454Z,32.72
2016-08-19T09:22:40.492Z,32.74
2016-08-19T09:23:55.457Z,32.43
2016-08-19T09:24:40.566Z,32.23
2016-08-19T09:26:40.634Z,31.8
2016-08-19T09:27:40.677Z,31.53
2016-08-19T09:28:40.705Z,30.62
2016-08-19T09:29:40.740Z,30.29
2016-08-19T09:30:40.771Z,30.16
2016-08-19T09:31:41.502Z,29.82
2016-08-19T09:32:40.843Z,29.86
2016-08-19T09:33:40.876Z,30.04
2016-08-19T09:34:40.909Z,30.29
2016-08-19T09:35:55.877Z,30.67
2016-08-19T09:36:41.033Z,31.07
2016-08-19T09:37:41.028Z,31.02
2016-08-19T09:38:55.978Z,31.02
2016-08-19T09:39:56.013Z,31.26
2016-08-19T09:40:41.129Z,30.83
2016-08-19T09:41:41.164Z,30.32
2016-08-19T09:42:41.192Z,29.86
2016-08-19T09:43:41.232Z,30.49
2016-08-19T09:44:41.267Z,30.24
2016-08-19T09:45:41.302Z,30.31
2016-08-19T09:46:41.333Z,30.57
2016-08-19T09:47:41.376Z,30.04
2016-08-19T09:48:41.405Z,30.08
2016-08-19T09:49:41.436Z,30.73
2016-08-19T09:50:41.473Z,30.92
2016-08-19T09:51:41.501Z,31.25
2016-08-19T09:53:41.575Z,31.47
2016-08-19T09:54:41.611Z,31.34
2016-08-19T09:55:56.570Z,31.19
2016-08-19T09:56:41.677Z,31.39
2016-08-19T09:57:41.716Z,31.68
2016-08-19T09:58:41.752Z,32.06
2016-08-19T09:59:41.782Z,31.95
2016-08-19T10:00:41.817Z,31.84
2016-08-19T10:01:41.850Z,31.95
2016-08-19T10:02:41.884Z,32.25
2016-08-19T10:03:41.918Z,32.4
2016-08-19T10:04:41.952Z,32.33
2016-08-19T10:05:41.987Z,32.43
2016-08-19T10:06:42.024Z,32.55
2016-08-19T10:07:56.991Z,32.06
2016-08-19T10:08:57.018Z,32.07
2016-08-19T10:09:42.124Z,31.95
2016-08-19T10:10:42.163Z,31.92
2016-08-19T10:11:57.121Z,31.93
2016-08-19T10:12:42.233Z,32.21
2016-08-19T10:13:57.187Z,31.91
2016-08-19T10:14:42.309Z,31.73
2016-08-19T10:15:42.334Z,32.01
2016-08-19T10:16:42.366Z,32.4
2016-08-19T10:17:42.400Z,32.35
2016-08-19T10:18:42.434Z,32.37
2016-08-19T10:19:42.471Z,32.52
2016-08-19T10:20:42.500Z,32.45
2016-08-19T10:21:42.539Z,32.15
2016-08-19T10:22:42.573Z,31.76
2016-08-19T10:23:57.533Z,31.93
2016-08-19T10:24:42.633Z,31.78
2016-08-19T10:25:42.677Z,31.73
2016-08-19T10:26:57.634Z,31.5
2016-08-19T10:27:57.669Z,31.04
2016-08-19T10:28:42.778Z,30.45
2016-08-19T10:29:42.808Z,30.11
2016-08-19T10:30:42.849Z,30.17
2016-08-19T10:31:42.929Z,30.26
2016-08-19T10:32:42.910Z,30.11
2016-08-19T10:33:42.945Z,29.28
2016-08-19T10:34:42.981Z,29.48
2016-08-19T10:35:43.024Z,29.46
2016-08-19T10:36:43.153Z,29.42
2016-08-19T10:37:43.085Z,29.48
2016-08-19T10:38:43.120Z,29.49
2016-08-19T10:39:43.153Z,29.48
2016-08-19T10:41:43.222Z,29.55
2016-08-19T10:42:43.259Z,29.49
2016-08-19T10:43:58.215Z,28.8
2016-08-19T10:44:58.244Z,28.68
2016-08-19T10:45:43.353Z,28.88
2016-08-19T10:46:43.393Z,29.15
2016-08-19T10:47:43.425Z,29.02
2016-08-19T10:48:43.458Z,28.58
2016-08-19T10:49:43.486Z,28.67
2016-08-19T10:50:43.524Z,28.64
2016-08-19T10:51:43.555Z,28.59
2016-08-19T10:53:43.622Z,28.41
2016-08-19T10:54:43.658Z,28.34
2016-08-19T10:55:43.688Z,28.29
2016-08-19T10:56:58.653Z,28.18
2016-08-19T10:58:58.718Z,28.33
2016-08-19T11:00:43.860Z,28.66
2016-08-19T11:01:43.890Z,28.77
2016-08-19T11:02:43.957Z,28.89
2016-08-19T11:03:43.959Z,28.85
2016-08-19T11:04:44.693Z,28.96
2016-08-19T11:05:44.025Z,29.12
2016-08-19T11:06:44.057Z,28.78
2016-08-19T11:07:44.097Z,28.44
2016-08-19T11:08:44.125Z,28.14
2016-08-19T11:09:44.161Z,27.92
2016-08-19T11:10:44.193Z,28.03
2016-08-19T11:11:44.223Z,28.52
2016-08-19T11:12:44.255Z,28.71
2016-08-19T11:13:44.292Z,28.71
2016-08-19T11:14:44.316Z,28.78
2016-08-19T11:15:44.357Z,28.46
2016-08-19T11:16:44.391Z,28.31
2016-08-19T11:17:44.423Z,28.3
2016-08-19T11:19:44.491Z,28.66
2016-08-19T11:20:44.521Z,28.58
2016-08-19T11:21:44.554Z,28.7
2016-08-19T11:22:44.584Z,28.59
2016-08-19T11:23:44.624Z,28.74
2016-08-19T11:24:44.653Z,28.76
2016-08-19T11:25:44.688Z,28.51
2016-08-19T11:26:44.711Z,28.34
2016-08-19T11:27:44.753Z,28.29
2016-08-19T11:28:44.782Z,28.4
2016-08-19T11:29:44.813Z,28.61
2016-08-19T11:30:59.782Z,28.86
2016-08-19T11:31:44.879Z,28.96
2016-08-19T11:32:44.911Z,28.83
2016-08-19T11:33:44.945Z,28.83
2016-08-19T11:34:44.985Z,28.74
2016-08-19T11:35:45.009Z,28.81
2016-08-19T11:36:45.041Z,28.96
2016-08-19T11:37:45.077Z,29.05
2016-08-19T11:39:45.139Z,28.85
2016-08-19T11:40:45.172Z,28.44
2016-08-19T11:41:45.209Z,28.41
2016-08-19T11:42:45.235Z,28.52
2016-08-19T11:43:45.326Z,28.22
2016-08-19T11:44:45.303Z,28.41
2016-08-19T11:45:45.327Z,28.61
2016-08-19T11:47:00.295Z,28.71
2016-08-19T11:47:45.409Z,28.86
2016-08-19T11:48:45.526Z,29.06
2016-08-19T11:49:46.174Z,29.19
2016-08-19T11:50:45.498Z,29.3
2016-08-19T11:51:45.526Z,29.3
2016-08-19T11:52:45.554Z,29.36
2016-08-19T11:53:45.594Z,29.21
2016-08-19T11:55:45.660Z,29.28
2016-08-19T11:56:45.689Z,29.12
2016-08-19T11:57:45.719Z,28.81
2016-08-19T11:58:45.767Z,28.83
2016-08-19T11:59:46.491Z,29.11
2016-08-19T12:00:45.822Z,29.16
2016-08-19T12:01:45.851Z,29.04
2016-08-19T12:03:00.805Z,29
2016-08-19T12:04:00.838Z,28.81
2016-08-19T12:04:45.947Z,28.68
2016-08-19T12:05:45.975Z,28.77
2016-08-19T12:06:46.014Z,28.54
2016-08-19T12:07:46.048Z,28.48
2016-08-19T12:08:46.079Z,28.31
2016-08-19T12:09:46.806Z,27.99
2016-08-19T12:10:46.145Z,28.02
2016-08-19T12:11:46.177Z,27.97
2016-08-19T12:12:46.205Z,28.29
2016-08-19T12:13:46.937Z,28.41
2016-08-19T12:14:46.264Z,28.4
2016-08-19T12:15:46.304Z,28.43
2016-08-19T12:16:46.340Z,28.68
2016-08-19T12:17:46.363Z,28.61
2016-08-19T12:19:01.326Z,28.07
2016-08-19T12:19:46.430Z,28.11
2016-08-19T12:20:46.463Z,28.12
2016-08-19T12:21:46.499Z,28.11
2016-08-19T12:22:46.530Z,28.39
2016-08-19T12:23:46.566Z,28.17
2016-08-19T12:24:46.595Z,28.33
2016-08-19T12:26:46.661Z,28.22
2016-08-19T12:27:47.387Z,28.25
2016-08-19T12:28:46.718Z,28.43
2016-08-19T12:29:46.754Z,28.51
2016-08-19T12:30:46.784Z,28.46
2016-08-19T12:31:46.821Z,28.67
2016-08-19T12:32:46.847Z,28.59
2016-08-19T12:34:01.810Z,28.7
2016-08-19T12:34:46.916Z,28.62
2016-08-19T12:35:46.943Z,28.59
2016-08-19T12:36:46.976Z,28.64
2016-08-19T12:37:47.007Z,28.67
2016-08-19T12:38:47.045Z,28.54
2016-08-19T12:39:47.121Z,28.33
2016-08-19T12:40:47.106Z,27.82
2016-08-19T12:41:47.139Z,27.72
2016-08-19T12:42:47.162Z,27.67
2016-08-19T12:43:47.202Z,27.85
2016-08-19T12:46:02.192Z,28.04
2016-08-19T12:46:47.291Z,28.15
2016-08-19T12:48:02.254Z,28.14
2016-08-19T12:48:47.358Z,28.15
2016-08-19T12:49:47.388Z,28.21
2016-08-19T12:50:47.420Z,28.18
2016-08-19T12:51:47.454Z,28.25
2016-08-19T12:52:47.487Z,28.37
2016-08-19T12:53:47.522Z,28.48
2016-08-19T12:54:47.550Z,28.49
2016-08-19T12:55:47.584Z,28.12
2016-08-19T12:56:47.612Z,27.9
2016-08-19T12:57:47.640Z,27.99
2016-08-19T12:58:47.676Z,27.99
2016-08-19T12:59:48.424Z,27.75
2016-08-19T13:00:47.743Z,27.74
2016-08-19T13:01:48.488Z,27.63
2016-08-19T13:02:47.809Z,27.67
2016-08-19T13:04:02.760Z,27.92
2016-08-19T13:04:47.866Z,28.14
2016-08-19T13:06:02.826Z,28.3
2016-08-19T13:07:47.968Z,28.34
2016-08-19T13:08:47.993Z,28.37
2016-08-19T13:09:48.029Z,28.43
2016-08-19T13:10:48.055Z,28.37
2016-08-19T13:11:48.092Z,28.43
2016-08-19T13:12:48.117Z,28.29
2016-08-19T13:13:48.173Z,28
2016-08-19T13:14:48.191Z,28.02
2016-08-19T13:15:48.222Z,27.92
2016-08-19T13:17:03.176Z,27.92
2016-08-19T13:17:48.279Z,28.03
2016-08-19T13:19:48.338Z,28.36
2016-08-19T13:22:03.329Z,28.24
2016-08-19T13:22:48.443Z,28.18
2016-08-19T13:23:48.467Z,28.31
2016-08-19T13:24:48.499Z,28.3
2016-08-19T13:25:48.531Z,28.39
2016-08-19T13:26:48.565Z,28.33
2016-08-19T13:27:48.592Z,28.3
2016-08-19T13:28:49.326Z,28.29
2016-08-19T13:29:48.659Z,28.33
2016-08-19T13:30:48.687Z,28.46
2016-08-19T13:31:48.723Z,28.41
2016-08-19T13:32:48.747Z,28.31
2016-08-19T13:34:48.816Z,28.43
2016-08-19T13:35:48.843Z,28.24
2016-08-19T13:36:48.884Z,28.11
2016-08-19T13:38:03.839Z,28.03
2016-08-19T13:39:03.867Z,28.03
2016-08-19T13:39:48.971Z,28.09
2016-08-19T13:40:49.007Z,28.12
2016-08-19T13:41:49.042Z,28.24
2016-08-19T13:42:49.068Z,28.25
2016-08-19T13:43:49.121Z,28.27
2016-08-19T13:44:49.133Z,28.36
2016-08-19T13:45:49.161Z,28.44
2016-08-19T13:46:49.197Z,28.54
2016-08-19T13:47:49.233Z,28.46